sensor_id;sensor_type;location;lat;lon;timestamp;pressure;altitude;pressure_sealevel;temperature;humidity
77450;BME280;66536;53.150;18.172;2023-09-18T00:02:28;101390.29;;;16.70;83.83
77450;BME280;66536;53.150;18.172;2023-09-18T00:05:03;101390.61;;;16.67;83.93
77450;BME280;66536;53.150;18.172;2023-09-18T00:07:49;101390.81;;;16.65;83.89
77450;BME280;66536;53.150;18.172;2023-09-18T00:10:22;101387.84;;;16.63;84.10
77450;BME280;66536;53.150;18.172;2023-09-18T00:13:08;101388.02;;;16.62;84.42
77450;BME280;66536;53.150;18.172;2023-09-18T00:15:41;101383.33;;;16.59;84.24
77450;BME280;66536;53.150;18.172;2023-09-18T00:18:26;101387.98;;;16.58;84.49
77450;BME280;66536;53.150;18.172;2023-09-18T00:20:59;101388.32;;;16.56;84.60
77450;BME280;66536;53.150;18.172;2023-09-18T00:23:45;101388.03;;;16.54;84.89
77450;BME280;66536;53.150;18.172;2023-09-18T00:26:18;101387.27;;;16.54;85.01
77450;BME280;66536;53.150;18.172;2023-09-18T00:29:03;101384.05;;;16.52;85.18
77450;BME280;66536;53.150;18.172;2023-09-18T00:31:36;101386.81;;;16.50;85.43
77450;BME280;66536;53.150;18.172;2023-09-18T00:34:21;101385.08;;;16.47;85.70
77450;BME280;66536;53.150;18.172;2023-09-18T00:36:54;101377.96;;;16.46;85.63
77450;BME280;66536;53.150;18.172;2023-09-18T00:39:46;101373.29;;;16.45;85.88
77450;BME280;66536;53.150;18.172;2023-09-18T00:42:39;101373.02;;;16.44;85.88
77450;BME280;66536;53.150;18.172;2023-09-18T00:45:34;101370.05;;;16.43;86.22
77450;BME280;66536;53.150;18.172;2023-09-18T00:48:27;101368.09;;;16.41;86.21
77450;BME280;66536;53.150;18.172;2023-09-18T00:51:21;101366.84;;;16.39;86.21
77450;BME280;66536;53.150;18.172;2023-09-18T00:54:16;101362.77;;;16.37;86.37
77450;BME280;66536;53.150;18.172;2023-09-18T00:57:11;101358.92;;;16.34;86.44
77450;BME280;66536;53.150;18.172;2023-09-18T01:00:04;101360.27;;;16.31;86.65
77450;BME280;66536;53.150;18.172;2023-09-18T01:03:03;101363.58;;;16.27;86.78
77450;BME280;66536;53.150;18.172;2023-09-18T01:05:56;101361.74;;;16.24;86.77
77450;BME280;66536;53.150;18.172;2023-09-18T01:08:30;101360.79;;;16.21;86.87
77450;BME280;66536;53.150;18.172;2023-09-18T01:11:26;101357.61;;;16.20;86.88
77450;BME280;66536;53.150;18.172;2023-09-18T01:14:14;101359.87;;;16.18;86.95
77450;BME280;66536;53.150;18.172;2023-09-18T01:17:03;101355.30;;;16.17;87.07
77450;BME280;66536;53.150;18.172;2023-09-18T01:19:42;101352.09;;;16.16;87.06
77450;BME280;66536;53.150;18.172;2023-09-18T01:22:30;101352.75;;;16.13;87.29
77450;BME280;66536;53.150;18.172;2023-09-18T01:25:03;101360.23;;;16.11;87.37
77450;BME280;66536;53.150;18.172;2023-09-18T01:27:51;101358.41;;;16.09;87.34
77450;BME280;66536;53.150;18.172;2023-09-18T01:30:26;101357.92;;;16.06;87.31
77450;BME280;66536;53.150;18.172;2023-09-18T01:33:14;101355.70;;;16.05;87.34
77450;BME280;66536;53.150;18.172;2023-09-18T01:35:49;101353.52;;;16.03;87.47
77450;BME280;66536;53.150;18.172;2023-09-18T01:38:23;101355.00;;;16.02;87.55
77450;BME280;66536;53.150;18.172;2023-09-18T01:41:03;101354.48;;;15.99;87.62
77450;BME280;66536;53.150;18.172;2023-09-18T01:43:35;101355.80;;;15.96;87.62
77450;BME280;66536;53.150;18.172;2023-09-18T01:46:08;101362.60;;;15.93;87.74
77450;BME280;66536;53.150;18.172;2023-09-18T01:48:48;101358.54;;;15.91;87.95
77450;BME280;66536;53.150;18.172;2023-09-18T01:51:21;101362.95;;;15.89;87.78
77450;BME280;66536;53.150;18.172;2023-09-18T01:53:55;101359.76;;;15.87;87.82
77450;BME280;66536;53.150;18.172;2023-09-18T01:56:35;101359.55;;;15.85;87.92
77450;BME280;66536;53.150;18.172;2023-09-18T01:59:08;101357.45;;;15.83;88.15
77450;BME280;66536;53.150;18.172;2023-09-18T02:01:42;101356.30;;;15.80;88.20
77450;BME280;66536;53.150;18.172;2023-09-18T02:04:22;101354.52;;;15.78;88.32
77450;BME280;66536;53.150;18.172;2023-09-18T02:06:54;101349.33;;;15.75;88.21
77450;BME280;66536;53.150;18.172;2023-09-18T02:09:27;101349.07;;;15.73;88.34
77450;BME280;66536;53.150;18.172;2023-09-18T02:12:09;101346.86;;;15.72;88.61
77450;BME280;66536;53.150;18.172;2023-09-18T02:14:41;101343.27;;;15.71;88.75
77450;BME280;66536;53.150;18.172;2023-09-18T02:17:13;101343.46;;;15.68;88.87
77450;BME280;66536;53.150;18.172;2023-09-18T02:19:53;101344.95;;;15.65;88.87
77450;BME280;66536;53.150;18.172;2023-09-18T02:22:26;101342.41;;;15.63;89.06
77450;BME280;66536;53.150;18.172;2023-09-18T02:24:58;101342.16;;;15.62;89.05
77450;BME280;66536;53.150;18.172;2023-09-18T02:27:44;101339.48;;;15.60;89.01
77450;BME280;66536;53.150;18.172;2023-09-18T02:30:16;101334.39;;;15.56;88.97
77450;BME280;66536;53.150;18.172;2023-09-18T02:33:02;101335.80;;;15.54;89.10
77450;BME280;66536;53.150;18.172;2023-09-18T02:35:35;101336.50;;;15.53;89.08
77450;BME280;66536;53.150;18.172;2023-09-18T02:38:29;101339.77;;;15.52;89.23
77450;BME280;66536;53.150;18.172;2023-09-18T02:41:23;101333.40;;;15.50;89.29
77450;BME280;66536;53.150;18.172;2023-09-18T02:44:18;101327.27;;;15.47;89.53
77450;BME280;66536;53.150;18.172;2023-09-18T02:47:48;101329.83;;;15.50;89.50
77450;BME280;66536;53.150;18.172;2023-09-18T02:50:42;101327.05;;;15.45;89.52
77450;BME280;66536;53.150;18.172;2023-09-18T02:53:36;101334.48;;;15.42;89.63
77450;BME280;66536;53.150;18.172;2023-09-18T02:56:31;101336.23;;;15.38;89.70
77450;BME280;66536;53.150;18.172;2023-09-18T02:59:25;101330.52;;;15.33;89.95
77450;BME280;66536;53.150;18.172;2023-09-18T03:02:19;101328.68;;;15.29;89.81
77450;BME280;66536;53.150;18.172;2023-09-18T03:05:13;101327.98;;;15.26;89.93
77450;BME280;66536;53.150;18.172;2023-09-18T03:08:07;101330.70;;;15.22;89.91
77450;BME280;66536;53.150;18.172;2023-09-18T03:11:01;101329.19;;;15.19;90.01
77450;BME280;66536;53.150;18.172;2023-09-18T03:13:55;101330.02;;;15.16;90.19
77450;BME280;66536;53.150;18.172;2023-09-18T03:16:49;101321.80;;;15.13;90.27
77450;BME280;66536;53.150;18.172;2023-09-18T03:19:43;101316.58;;;15.10;90.28
77450;BME280;66536;53.150;18.172;2023-09-18T03:22:40;101315.06;;;15.09;90.27
77450;BME280;66536;53.150;18.172;2023-09-18T03:25:36;101312.98;;;15.06;90.30
77450;BME280;66536;53.150;18.172;2023-09-18T03:28:31;101310.58;;;15.05;90.36
77450;BME280;66536;53.150;18.172;2023-09-18T03:31:26;101305.39;;;15.02;90.40
77450;BME280;66536;53.150;18.172;2023-09-18T03:34:20;101300.62;;;14.99;90.62
77450;BME280;66536;53.150;18.172;2023-09-18T03:37:17;101292.41;;;14.97;90.81
77450;BME280;66536;53.150;18.172;2023-09-18T03:39:54;101289.23;;;14.96;90.80
77450;BME280;66536;53.150;18.172;2023-09-18T03:42:41;101288.98;;;14.93;90.88
77450;BME280;66536;53.150;18.172;2023-09-18T03:45:15;101288.82;;;14.91;90.83
77450;BME280;66536;53.150;18.172;2023-09-18T03:48:02;101284.97;;;14.87;90.94
77450;BME280;66536;53.150;18.172;2023-09-18T03:50:36;101280.95;;;14.85;90.91
77450;BME280;66536;53.150;18.172;2023-09-18T03:53:23;101275.60;;;14.84;90.99
77450;BME280;66536;53.150;18.172;2023-09-18T03:55:56;101273.91;;;14.82;90.91
77450;BME280;66536;53.150;18.172;2023-09-18T03:58:43;101270.27;;;14.80;90.99
77450;BME280;66536;53.150;18.172;2023-09-18T04:01:19;101264.09;;;14.77;90.99
77450;BME280;66536;53.150;18.172;2023-09-18T04:04:07;101263.55;;;14.75;91.11
77450;BME280;66536;53.150;18.172;2023-09-18T04:06:42;101263.45;;;14.73;91.09
77450;BME280;66536;53.150;18.172;2023-09-18T04:09:36;101258.60;;;14.70;91.11
77450;BME280;66536;53.150;18.172;2023-09-18T04:12:33;101250.56;;;14.68;91.06
77450;BME280;66536;53.150;18.172;2023-09-18T04:15:27;101256.39;;;14.67;91.16
77450;BME280;66536;53.150;18.172;2023-09-18T04:18:24;101255.61;;;14.65;91.27
77450;BME280;66536;53.150;18.172;2023-09-18T04:21:18;101241.67;;;14.64;91.50
77450;BME280;66536;53.150;18.172;2023-09-18T04:23:52;101238.67;;;14.63;91.37
77450;BME280;66536;53.150;18.172;2023-09-18T04:26:56;101242.30;;;14.62;91.46
77450;BME280;66536;53.150;18.172;2023-09-18T04:29:29;101237.98;;;14.62;91.50
77450;BME280;66536;53.150;18.172;2023-09-18T04:32:22;101241.29;;;14.63;91.39
77450;BME280;66536;53.150;18.172;2023-09-18T04:34:56;101239.59;;;14.64;91.00
77450;BME280;66536;53.150;18.172;2023-09-18T04:37:46;101238.52;;;14.64;90.89
77450;BME280;66536;53.150;18.172;2023-09-18T04:40:20;101230.54;;;14.66;91.12
77450;BME280;66536;53.150;18.172;2023-09-18T04:43:11;101229.84;;;14.68;90.92
77450;BME280;66536;53.150;18.172;2023-09-18T04:45:45;101227.89;;;14.68;90.51
77450;BME280;66536;53.150;18.172;2023-09-18T04:48:32;101225.90;;;14.70;90.43
77450;BME280;66536;53.150;18.172;2023-09-18T04:51:06;101228.52;;;14.74;90.43
77450;BME280;66536;53.150;18.172;2023-09-18T04:53:53;101230.42;;;14.78;90.33
77450;BME280;66536;53.150;18.172;2023-09-18T04:56:28;101234.04;;;14.82;90.64
77450;BME280;66536;53.150;18.172;2023-09-18T04:59:14;101235.17;;;14.87;90.63
77450;BME280;66536;53.150;18.172;2023-09-18T05:01:48;101234.67;;;14.92;90.84
77450;BME280;66536;53.150;18.172;2023-09-18T05:04:35;101238.05;;;14.97;90.93
77450;BME280;66536;53.150;18.172;2023-09-18T05:07:09;101240.17;;;15.03;90.87
77450;BME280;66536;53.150;18.172;2023-09-18T05:10:04;101236.91;;;15.09;90.80
77450;BME280;66536;53.150;18.172;2023-09-18T05:12:57;101237.56;;;15.17;90.61
77450;BME280;66536;53.150;18.172;2023-09-18T05:15:53;101238.43;;;15.24;90.56
77450;BME280;66536;53.150;18.172;2023-09-18T05:18:50;101237.55;;;15.33;90.50
77450;BME280;66536;53.150;18.172;2023-09-18T05:21:44;101236.59;;;15.41;90.45
77450;BME280;66536;53.150;18.172;2023-09-18T05:24:39;101236.29;;;15.51;90.57
77450;BME280;66536;53.150;18.172;2023-09-18T05:28:13;101234.23;;;15.62;90.34
77450;BME280;66536;53.150;18.172;2023-09-18T05:30:47;101232.33;;;15.70;90.24
77450;BME280;66536;53.150;18.172;2023-09-18T05:33:34;101227.93;;;15.78;90.27
77450;BME280;66536;53.150;18.172;2023-09-18T05:36:07;101232.88;;;15.87;89.98
77450;BME280;66536;53.150;18.172;2023-09-18T05:38:50;101229.84;;;15.96;89.96
77450;BME280;66536;53.150;18.172;2023-09-18T05:41:32;101230.73;;;16.05;89.67
77450;BME280;66536;53.150;18.172;2023-09-18T05:44:12;101223.80;;;16.14;89.73
77450;BME280;66536;53.150;18.172;2023-09-18T05:46:53;101223.32;;;16.23;89.44
77450;BME280;66536;53.150;18.172;2023-09-18T05:49:50;101219.98;;;16.32;89.37
77450;BME280;66536;53.150;18.172;2023-09-18T05:52:46;101219.73;;;16.42;89.05
77450;BME280;66536;53.150;18.172;2023-09-18T05:55:47;101213.88;;;16.53;88.99
77450;BME280;66536;53.150;18.172;2023-09-18T05:58:43;101210.73;;;16.63;88.85
77450;BME280;66536;53.150;18.172;2023-09-18T06:01:37;101205.20;;;16.74;88.67
77450;BME280;66536;53.150;18.172;2023-09-18T06:04:31;101207.46;;;16.86;88.14
77450;BME280;66536;53.150;18.172;2023-09-18T06:07:26;101208.05;;;16.98;88.09
77450;BME280;66536;53.150;18.172;2023-09-18T06:10:20;101213.70;;;17.12;87.58
77450;BME280;66536;53.150;18.172;2023-09-18T06:12:54;101212.08;;;17.23;87.38
77450;BME280;66536;53.150;18.172;2023-09-18T06:15:46;101212.32;;;17.35;86.90
77450;BME280;66536;53.150;18.172;2023-09-18T06:18:20;101206.00;;;17.45;86.66
77450;BME280;66536;53.150;18.172;2023-09-18T06:21:07;101211.11;;;17.56;86.41
77450;BME280;66536;53.150;18.172;2023-09-18T06:23:41;101208.90;;;17.65;86.08
77450;BME280;66536;53.150;18.172;2023-09-18T06:26:28;101199.91;;;17.77;85.85
77450;BME280;66536;53.150;18.172;2023-09-18T06:29:03;101200.54;;;17.87;85.67
77450;BME280;66536;53.150;18.172;2023-09-18T06:31:54;101198.32;;;17.98;85.37
77450;BME280;66536;53.150;18.172;2023-09-18T06:34:28;101196.62;;;18.08;85.12
77450;BME280;66536;53.150;18.172;2023-09-18T06:37:04;101195.34;;;18.19;84.77
77450;BME280;66536;53.150;18.172;2023-09-18T06:39:45;101199.33;;;18.28;84.56
77450;BME280;66536;53.150;18.172;2023-09-18T06:42:19;101194.65;;;18.39;84.23
77450;BME280;66536;53.150;18.172;2023-09-18T06:44:58;101190.91;;;18.49;83.84
77450;BME280;66536;53.150;18.172;2023-09-18T06:47:39;101189.54;;;18.58;83.67
77450;BME280;66536;53.150;18.172;2023-09-18T06:50:20;101189.48;;;18.68;83.29
77450;BME280;66536;53.150;18.172;2023-09-18T06:53:07;101189.06;;;18.77;82.88
77450;BME280;66536;53.150;18.172;2023-09-18T06:55:41;101185.00;;;18.86;82.72
77450;BME280;66536;53.150;18.172;2023-09-18T06:58:29;101180.35;;;18.94;82.13
77450;BME280;66536;53.150;18.172;2023-09-18T07:01:02;101174.29;;;19.02;81.88
77450;BME280;66536;53.150;18.172;2023-09-18T07:03:50;101172.85;;;19.13;81.77
77450;BME280;66536;53.150;18.172;2023-09-18T07:06:24;101171.00;;;19.24;81.50
77450;BME280;66536;53.150;18.172;2023-09-18T07:09:10;101169.13;;;19.35;80.86
77450;BME280;66536;53.150;18.172;2023-09-18T07:11:54;101167.69;;;19.47;80.62
77450;BME280;66536;53.150;18.172;2023-09-18T07:14:33;101162.98;;;19.59;80.48
77450;BME280;66536;53.150;18.172;2023-09-18T07:17:13;101155.16;;;19.69;79.91
77450;BME280;66536;53.150;18.172;2023-09-18T07:19:54;101159.09;;;19.77;79.51
77450;BME280;66536;53.150;18.172;2023-09-18T07:22:33;101156.62;;;19.85;79.49
77450;BME280;66536;53.150;18.172;2023-09-18T07:25:20;101158.89;;;19.97;79.19
77450;BME280;66536;53.150;18.172;2023-09-18T07:27:54;101156.41;;;20.11;78.77
77450;BME280;66536;53.150;18.172;2023-09-18T07:30:34;101153.81;;;20.24;78.50
77450;BME280;66536;53.150;18.172;2023-09-18T07:33:16;101158.27;;;20.38;78.20
77450;BME280;66536;53.150;18.172;2023-09-18T07:35:56;101157.69;;;20.50;77.62
77450;BME280;66536;53.150;18.172;2023-09-18T07:38:39;101160.13;;;20.63;77.11
77450;BME280;66536;53.150;18.172;2023-09-18T07:41:16;101158.67;;;20.80;76.83
77450;BME280;66536;53.150;18.172;2023-09-18T07:44:04;101153.10;;;20.95;76.31
77450;BME280;66536;53.150;18.172;2023-09-18T07:46:37;101151.51;;;21.11;75.99
77450;BME280;66536;53.150;18.172;2023-09-18T07:49:31;101150.91;;;21.25;75.46
77450;BME280;66536;53.150;18.172;2023-09-18T07:52:08;101154.06;;;21.38;74.95
77450;BME280;66536;53.150;18.172;2023-09-18T07:54:58;101151.98;;;21.52;74.65
77450;BME280;66536;53.150;18.172;2023-09-18T07:57:32;101152.48;;;21.63;74.12
77450;BME280;66536;53.150;18.172;2023-09-18T08:00:19;101148.24;;;21.74;73.62
77450;BME280;66536;53.150;18.172;2023-09-18T08:03:12;101152.24;;;21.85;73.40
77450;BME280;66536;53.150;18.172;2023-09-18T08:06:07;101152.66;;;22.00;72.90
77450;BME280;66536;53.150;18.172;2023-09-18T08:09:05;101150.91;;;22.17;72.51
77450;BME280;66536;53.150;18.172;2023-09-18T08:11:39;101148.86;;;22.34;71.97
77450;BME280;66536;53.150;18.172;2023-09-18T08:14:29;101144.98;;;22.49;71.64
77450;BME280;66536;53.150;18.172;2023-09-18T08:17:03;101144.55;;;22.65;71.25
77450;BME280;66536;53.150;18.172;2023-09-18T08:19:51;101135.29;;;22.81;70.72
77450;BME280;66536;53.150;18.172;2023-09-18T08:22:27;101131.14;;;22.98;70.30
77450;BME280;66536;53.150;18.172;2023-09-18T08:25:16;101122.02;;;23.14;69.82
77450;BME280;66536;53.150;18.172;2023-09-18T08:27:49;101120.58;;;23.28;69.28
77450;BME280;66536;53.150;18.172;2023-09-18T08:30:36;101119.35;;;23.37;68.82
77450;BME280;66536;53.150;18.172;2023-09-18T08:33:10;101118.39;;;23.48;68.40
77450;BME280;66536;53.150;18.172;2023-09-18T08:36:01;101116.09;;;23.59;67.98
77450;BME280;66536;53.150;18.172;2023-09-18T08:38:38;101109.77;;;23.72;67.65
77450;BME280;66536;53.150;18.172;2023-09-18T08:41:28;101108.16;;;23.86;67.17
77450;BME280;66536;53.150;18.172;2023-09-18T08:44:05;101105.84;;;23.99;66.44
77450;BME280;66536;53.150;18.172;2023-09-18T08:46:54;101102.14;;;24.09;66.21
77450;BME280;66536;53.150;18.172;2023-09-18T08:49:29;101095.67;;;24.21;65.67
77450;BME280;66536;53.150;18.172;2023-09-18T08:52:17;101090.43;;;24.32;65.21
77450;BME280;66536;53.150;18.172;2023-09-18T08:54:51;101083.19;;;24.45;64.84
77450;BME280;66536;53.150;18.172;2023-09-18T08:57:50;101077.02;;;24.61;64.40
77450;BME280;66536;53.150;18.172;2023-09-18T09:00:44;101072.31;;;24.75;63.93
77450;BME280;66536;53.150;18.172;2023-09-18T09:03:41;101062.73;;;24.91;63.64
77450;BME280;66536;53.150;18.172;2023-09-18T09:06:37;101055.55;;;25.06;62.99
77450;BME280;66536;53.150;18.172;2023-09-18T09:09:32;101049.36;;;25.20;62.51
77450;BME280;66536;53.150;18.172;2023-09-18T09:12:06;101052.08;;;25.33;62.11
77450;BME280;66536;53.150;18.172;2023-09-18T09:15:02;101044.25;;;25.45;61.48
77450;BME280;66536;53.150;18.172;2023-09-18T09:17:52;101044.05;;;25.49;60.83
77450;BME280;66536;53.150;18.172;2023-09-18T09:20:35;101040.96;;;25.62;60.81
77450;BME280;66536;53.150;18.172;2023-09-18T09:23:23;101036.73;;;25.79;60.59
77450;BME280;66536;53.150;18.172;2023-09-18T09:26:12;101033.95;;;25.97;59.57
77450;BME280;66536;53.150;18.172;2023-09-18T09:29:19;101031.27;;;26.09;58.55
77450;BME280;66536;53.150;18.172;2023-09-18T09:32:13;101030.95;;;26.20;58.47
77450;BME280;66536;53.150;18.172;2023-09-18T09:34:57;101025.30;;;26.32;57.96
77450;BME280;66536;53.150;18.172;2023-09-18T09:37:41;101016.13;;;26.40;57.79
77450;BME280;66536;53.150;18.172;2023-09-18T09:40:22;101012.16;;;26.53;57.72
77450;BME280;66536;53.150;18.172;2023-09-18T09:43:12;101003.40;;;26.67;57.31
77450;BME280;66536;53.150;18.172;2023-09-18T09:46:15;100998.56;;;26.85;56.61
77450;BME280;66536;53.150;18.172;2023-09-18T09:49:12;100990.52;;;26.97;56.00
77450;BME280;66536;53.150;18.172;2023-09-18T09:52:18;100983.56;;;27.10;55.48
77450;BME280;66536;53.150;18.172;2023-09-18T09:54:54;100976.61;;;27.24;55.38
77450;BME280;66536;53.150;18.172;2023-09-18T09:57:49;100971.55;;;27.37;54.79
77450;BME280;66536;53.150;18.172;2023-09-18T10:00:26;100972.80;;;27.45;54.46
77450;BME280;66536;53.150;18.172;2023-09-18T10:03:32;100970.31;;;27.53;54.08
77450;BME280;66536;53.150;18.172;2023-09-18T10:06:27;100965.53;;;27.67;53.84
77450;BME280;66536;53.150;18.172;2023-09-18T10:09:24;100962.12;;;27.80;53.38
77450;BME280;66536;53.150;18.172;2023-09-18T10:12:20;100954.80;;;27.89;52.34
77450;BME280;66536;53.150;18.172;2023-09-18T10:14:56;100949.74;;;27.94;51.88
77450;BME280;66536;53.150;18.172;2023-09-18T10:17:48;100947.07;;;28.03;51.78
77450;BME280;66536;53.150;18.172;2023-09-18T10:20:26;100945.80;;;28.12;51.56
77450;BME280;66536;53.150;18.172;2023-09-18T10:23:36;100942.70;;;28.20;50.96
77450;BME280;66536;53.150;18.172;2023-09-18T10:26:14;100936.18;;;28.26;50.53
77450;BME280;66536;53.150;18.172;2023-09-18T10:29:13;100935.59;;;28.35;50.25
77450;BME280;66536;53.150;18.172;2023-09-18T10:31:48;100933.77;;;28.45;50.10
77450;BME280;66536;53.150;18.172;2023-09-18T10:34:37;100930.06;;;28.54;49.46
77450;BME280;66536;53.150;18.172;2023-09-18T10:37:11;100922.12;;;28.60;48.91
77450;BME280;66536;53.150;18.172;2023-09-18T10:40:00;100924.14;;;28.68;48.53
77450;BME280;66536;53.150;18.172;2023-09-18T10:42:34;100924.02;;;28.76;48.15
77450;BME280;66536;53.150;18.172;2023-09-18T10:45:22;100918.83;;;28.80;47.67
77450;BME280;66536;53.150;18.172;2023-09-18T10:47:56;100921.89;;;28.82;47.75
77450;BME280;66536;53.150;18.172;2023-09-18T10:50:44;100911.02;;;28.90;47.52
77450;BME280;66536;53.150;18.172;2023-09-18T10:53:19;100906.89;;;29.00;46.85
77450;BME280;66536;53.150;18.172;2023-09-18T10:56:08;100900.27;;;29.06;46.72
77450;BME280;66536;53.150;18.172;2023-09-18T10:58:44;100903.77;;;29.08;46.18
77450;BME280;66536;53.150;18.172;2023-09-18T11:01:32;100906.61;;;29.05;46.15
77450;BME280;66536;53.150;18.172;2023-09-18T11:04:07;100900.85;;;29.01;45.98
77450;BME280;66536;53.150;18.172;2023-09-18T11:07:01;100897.69;;;28.86;45.98
77450;BME280;66536;53.150;18.172;2023-09-18T11:09:44;100898.29;;;28.80;46.29
77450;BME280;66536;53.150;18.172;2023-09-18T11:12:43;100895.64;;;28.77;46.21
77450;BME280;66536;53.150;18.172;2023-09-18T11:15:26;100893.81;;;28.85;45.90
77450;BME280;66536;53.150;18.172;2023-09-18T11:18:14;100893.13;;;28.95;45.42
77450;BME280;66536;53.150;18.172;2023-09-18T11:21:10;100893.85;;;28.99;45.59
77450;BME280;66536;53.150;18.172;2023-09-18T11:23:44;100892.63;;;29.03;45.40
77450;BME280;66536;53.150;18.172;2023-09-18T11:26:20;100886.48;;;29.08;45.52
77450;BME280;66536;53.150;18.172;2023-09-18T11:29:04;100888.84;;;29.17;44.77
77450;BME280;66536;53.150;18.172;2023-09-18T11:31:46;100886.43;;;29.24;44.65
77450;BME280;66536;53.150;18.172;2023-09-18T11:34:22;100882.02;;;29.32;44.57
77450;BME280;66536;53.150;18.172;2023-09-18T11:37:19;100872.83;;;29.35;44.02
77450;BME280;66536;53.150;18.172;2023-09-18T11:39:54;100870.59;;;29.35;43.67
77450;BME280;66536;53.150;18.172;2023-09-18T11:42:27;100866.21;;;29.29;43.60
77450;BME280;66536;53.150;18.172;2023-09-18T11:45:17;100861.34;;;29.30;43.64
77450;BME280;66536;53.150;18.172;2023-09-18T11:47:50;100860.74;;;29.37;43.61
77450;BME280;66536;53.150;18.172;2023-09-18T11:50:41;100853.95;;;29.49;43.45
77450;BME280;66536;53.150;18.172;2023-09-18T11:53:18;100852.80;;;29.58;42.80
77450;BME280;66536;53.150;18.172;2023-09-18T11:56:11;100851.23;;;29.65;42.64
77450;BME280;66536;53.150;18.172;2023-09-18T11:58:48;100844.82;;;29.75;42.23
77450;BME280;66536;53.150;18.172;2023-09-18T12:01:36;100840.05;;;29.78;42.07
77450;BME280;66536;53.150;18.172;2023-09-18T12:04:12;100835.45;;;29.82;41.87
77450;BME280;66536;53.150;18.172;2023-09-18T12:07:00;100829.89;;;29.84;41.55
77450;BME280;66536;53.150;18.172;2023-09-18T12:09:36;100827.42;;;29.84;40.70
77450;BME280;66536;53.150;18.172;2023-09-18T12:12:29;100829.89;;;29.82;40.34
77450;BME280;66536;53.150;18.172;2023-09-18T12:15:05;100824.34;;;29.87;40.12
77450;BME280;66536;53.150;18.172;2023-09-18T12:18:17;100821.36;;;29.92;39.71
77450;BME280;66536;53.150;18.172;2023-09-18T12:20:51;100823.33;;;29.93;39.70
77450;BME280;66536;53.150;18.172;2023-09-18T12:23:39;100822.20;;;29.94;38.95
77450;BME280;66536;53.150;18.172;2023-09-18T12:26:16;100817.90;;;29.91;38.43
77450;BME280;66536;53.150;18.172;2023-09-18T12:29:05;100818.83;;;29.86;38.65
77450;BME280;66536;53.150;18.172;2023-09-18T12:31:41;100817.83;;;29.89;38.79
77450;BME280;66536;53.150;18.172;2023-09-18T12:34:30;100816.21;;;29.90;38.75
77450;BME280;66536;53.150;18.172;2023-09-18T12:37:06;100812.23;;;29.94;38.67
77450;BME280;66536;53.150;18.172;2023-09-18T12:39:58;100809.16;;;30.01;38.82
77450;BME280;66536;53.150;18.172;2023-09-18T12:42:31;100801.11;;;30.04;38.63
77450;BME280;66536;53.150;18.172;2023-09-18T12:45:20;100799.69;;;30.05;38.56
77450;BME280;66536;53.150;18.172;2023-09-18T12:47:55;100797.54;;;30.00;37.94
77450;BME280;66536;53.150;18.172;2023-09-18T12:50:44;100797.83;;;29.95;37.89
77450;BME280;66536;53.150;18.172;2023-09-18T12:53:22;100787.27;;;29.85;37.33
77450;BME280;66536;53.150;18.172;2023-09-18T12:56:13;100786.23;;;29.74;38.03
77450;BME280;66536;53.150;18.172;2023-09-18T12:58:46;100780.33;;;29.75;37.98
77450;BME280;66536;53.150;18.172;2023-09-18T13:01:33;100776.36;;;29.75;37.97
77450;BME280;66536;53.150;18.172;2023-09-18T13:04:06;100775.40;;;29.77;38.08
77450;BME280;66536;53.150;18.172;2023-09-18T13:07:04;100770.39;;;29.82;37.86
77450;BME280;66536;53.150;18.172;2023-09-18T13:09:39;100769.46;;;29.88;37.85
77450;BME280;66536;53.150;18.172;2023-09-18T13:12:48;100766.96;;;29.91;37.72
77450;BME280;66536;53.150;18.172;2023-09-18T13:15:28;100766.31;;;29.94;37.72
77450;BME280;66536;53.150;18.172;2023-09-18T13:18:16;100760.46;;;30.00;37.78
77450;BME280;66536;53.150;18.172;2023-09-18T13:20:50;100750.27;;;30.04;37.53
77450;BME280;66536;53.150;18.172;2023-09-18T13:23:41;100746.11;;;30.02;37.08
77450;BME280;66536;53.150;18.172;2023-09-18T13:26:14;100753.81;;;29.99;36.77
77450;BME280;66536;53.150;18.172;2023-09-18T13:29:01;100744.88;;;30.04;36.66
77450;BME280;66536;53.150;18.172;2023-09-18T13:31:37;100731.91;;;30.02;36.77
77450;BME280;66536;53.150;18.172;2023-09-18T13:34:24;100723.99;;;30.02;36.74
77450;BME280;66536;53.150;18.172;2023-09-18T13:36:57;100712.60;;;30.01;36.82
77450;BME280;66536;53.150;18.172;2023-09-18T13:39:44;100712.05;;;30.01;36.82
77450;BME280;66536;53.150;18.172;2023-09-18T13:42:19;100705.25;;;30.06;36.74
77450;BME280;66536;53.150;18.172;2023-09-18T13:45:13;100707.09;;;30.11;36.98
77450;BME280;66536;53.150;18.172;2023-09-18T13:48:08;100704.05;;;30.09;36.74
77450;BME280;66536;53.150;18.172;2023-09-18T13:51:02;100702.42;;;29.98;36.12
77450;BME280;66536;53.150;18.172;2023-09-18T13:53:56;100695.31;;;29.90;35.95
77450;BME280;66536;53.150;18.172;2023-09-18T13:56:50;100692.52;;;29.89;35.85
77450;BME280;66536;53.150;18.172;2023-09-18T13:59:45;100690.55;;;29.87;36.09
77450;BME280;66536;53.150;18.172;2023-09-18T14:02:39;100683.71;;;29.85;35.83
77450;BME280;66536;53.150;18.172;2023-09-18T14:05:34;100686.17;;;29.86;35.88
77450;BME280;66536;53.150;18.172;2023-09-18T14:08:28;100686.76;;;29.82;35.61
77450;BME280;66536;53.150;18.172;2023-09-18T14:11:01;100680.91;;;29.78;35.88
77450;BME280;66536;53.150;18.172;2023-09-18T14:13:48;100678.86;;;29.76;35.83